»·PEaware :: ASA103 KPHX-KSJC

ASA103 :: KPHX-KSJC

FLIGHT INFORMATION

Flight Status: Arrived
Operator:
Alaska Airlines
More flights by this operator :: More flights under this callsign
Pilot: Andrew C. (28419)
Aircraft: BOEING 737-800
(B738)
More flights by this aircraft type
Origin: KPHX Phoenix Sky Harbor Intl
United States
Destination: KSJC Mineta San Jose Intl
United States
More flights between these airports :: More routes between these airports
Route: +KEENS2 HRRBR CURIV J212 DECAS PMD J6 AVE TROXX SILCN4
File this flight plan on PilotEdge
Remarks: RMK / SIMBRIEF
Altitude:
(Current/Filed)
36,000ft
Speed:
(Current/Filed)
459kts
Departed: 12-Jun-20 03:48 PM
Arrived: 12-Jun-20 05:21 PM
Distance/Time
Traveled:
539nm/1:33
Distance/Time
To Go:
Arrived

Flight Plot

Page will automatically refresh every two minutes.

Flight plan parsing failed; only flown route is shown


Map Options




Map Legend


Flown Route
Filed Route
Departure Airport
Arrival Airport
Navaid (VOR, NDB)
Fix

Horizontal Profiles

Position Reports

Time Latitude Longitude Heading Altitude Ground
Speed
12-Jun-20 15:26 33.436887 -111.996310 269 1133ft 0kts
12-Jun-20 15:27 33.436887 -111.996310 269 1133ft 0kts
12-Jun-20 15:28 33.436887 -111.996310 269 1133ft 0kts
12-Jun-20 15:29 33.436887 -111.996310 269 1133ft 0kts
12-Jun-20 15:30 33.436887 -111.996310 269 1133ft 0kts
12-Jun-20 15:31 33.436887 -111.996310 269 1133ft 0kts
12-Jun-20 15:32 33.436887 -111.996310 269 1133ft 0kts
12-Jun-20 15:33 33.436887 -111.996310 269 1133ft 0kts
12-Jun-20 15:34 33.436887 -111.996310 269 1133ft 0kts
12-Jun-20 15:35 33.436887 -111.996310 269 1133ft 0kts
12-Jun-20 15:36 33.436887 -111.996310 269 1133ft 0kts
12-Jun-20 15:37 33.436887 -111.996310 269 1133ft 0kts
12-Jun-20 15:38 33.436887 -111.996310 269 1133ft 0kts
12-Jun-20 15:39 33.436887 -111.996310 269 1133ft 0kts
12-Jun-20 15:40 33.436890 -111.996054 268 1133ft 2kts
12-Jun-20 15:41 33.436636 -111.995698 359 1132ft 0kts
12-Jun-20 15:42 33.436636 -111.995698 359 1132ft 0kts
12-Jun-20 15:43 33.437201 -111.995715 358 1133ft 16kts
12-Jun-20 15:44 33.438183 -111.995738 357 1134ft 0kts
12-Jun-20 15:45 33.439312 -111.992357 23 1137ft 7kts
12-Jun-20 15:46 33.439752 -111.992302 358 1138ft 0kts
12-Jun-20 15:47 33.440837 -112.001676 270 1135ft 123kts
12-Jun-20 15:48 33.437852 -112.061342 258 2638ft 221kts
12-Jun-20 15:49 33.411153 -112.139540 245 5193ft 271kts
12-Jun-20 15:50 33.397635 -112.232482 274 8203ft 300kts
12-Jun-20 15:51 33.415657 -112.334044 279 10467ft 340kts
12-Jun-20 15:52 33.436157 -112.450209 276 12891ft 360kts
12-Jun-20 15:53 33.453159 -112.570732 277 15383ft 372kts
12-Jun-20 15:54 33.457408 -112.693798 268 17678ft 378kts
12-Jun-20 15:55 33.461791 -112.820872 277 19823ft 391kts
12-Jun-20 15:56 33.482562 -112.949984 278 21875ft 399kts
12-Jun-20 15:57 33.505822 -113.081645 279 23779ft 407kts
12-Jun-20 15:58 33.530463 -113.215803 279 25503ft 416kts
12-Jun-20 15:59 33.555591 -113.352107 279 27183ft 422kts
12-Jun-20 16:00 33.581077 -113.490987 279 28659ft 429kts
12-Jun-20 16:01 33.606938 -113.631886 279 30078ft 435kts
12-Jun-20 16:02 33.633299 -113.774222 279 31687ft 432kts
12-Jun-20 16:03 33.659112 -113.914158 278 33309ft 426kts
12-Jun-20 16:04 33.684315 -114.052011 278 34815ft 419kts
12-Jun-20 16:05 33.709212 -114.188222 278 35877ft 419kts
12-Jun-20 16:06 33.733986 -114.324376 277 35871ft 413kts
12-Jun-20 16:07 33.759243 -114.459581 281 35871ft 416kts
12-Jun-20 16:08 33.791630 -114.593921 281 35871ft 417kts
12-Jun-20 16:09 33.824205 -114.728121 281 35871ft 416kts
12-Jun-20 16:10 33.856829 -114.862692 280 35871ft 416kts
12-Jun-20 16:11 33.889482 -114.997398 280 35874ft 416kts
12-Jun-20 16:12 33.922179 -115.132270 280 35894ft 415kts
12-Jun-20 16:13 33.954775 -115.266734 280 35908ft 415kts
12-Jun-20 16:14 33.987371 -115.401002 279 35908ft 412kts
12-Jun-20 16:15 34.019624 -115.533754 278 35908ft 409kts
12-Jun-20 16:16 34.051654 -115.665925 278 35908ft 410kts
12-Jun-20 16:17 34.083906 -115.799216 278 35908ft 409kts
12-Jun-20 16:18 34.116001 -115.931951 278 35917ft 410kts
12-Jun-20 16:19 34.148184 -116.064956 278 35957ft 410kts
12-Jun-20 16:20 34.180210 -116.197327 278 36019ft 409kts
12-Jun-20 16:21 34.212333 -116.330132 278 36055ft 410kts
12-Jun-20 16:22 34.244272 -116.462138 277 36089ft 409kts
12-Jun-20 16:23 34.276250 -116.594354 277 36091ft 409kts
12-Jun-20 16:24 34.307789 -116.724860 276 36091ft 408kts
12-Jun-20 16:25 34.339747 -116.857280 276 36091ft 409kts
12-Jun-20 16:26 34.369399 -116.980190 276 36085ft 407kts
12-Jun-20 16:27 34.401464 -117.112965 276 36075ft 409kts
12-Jun-20 16:29 34.433754 -117.246675 276 36073ft 407kts
12-Jun-20 16:30 34.465749 -117.379107 275 36071ft 407kts
12-Jun-20 16:31 34.497594 -117.511008 275 36073ft 406kts
12-Jun-20 16:32 34.529514 -117.643220 275 36073ft 406kts
12-Jun-20 16:33 34.561445 -117.775479 275 36072ft 406kts
12-Jun-20 16:34 34.596237 -117.907529 286 36082ft 421kts
12-Jun-20 16:35 34.658263 -118.031946 290 36096ft 428kts
12-Jun-20 16:36 34.720997 -118.155022 290 36110ft 426kts
12-Jun-20 16:37 34.783892 -118.278577 290 36115ft 427kts
12-Jun-20 16:38 34.846799 -118.402107 290 36122ft 427kts
12-Jun-20 16:39 34.909869 -118.526136 290 36127ft 428kts
12-Jun-20 16:40 34.972819 -118.649923 291 36126ft 426kts
12-Jun-20 16:41 35.034626 -118.771500 290 36126ft 426kts
12-Jun-20 16:42 35.097306 -118.894910 291 36108ft 424kts
12-Jun-20 16:43 35.159266 -119.016939 291 36074ft 424kts
12-Jun-20 16:44 35.220090 -119.136779 291 36054ft 424kts
12-Jun-20 16:44 35.272080 -119.239297 291 36053ft 424kts
12-Jun-20 16:46 35.344678 -119.382354 291 36055ft 424kts
12-Jun-20 16:47 35.407079 -119.505378 292 36040ft 424kts
12-Jun-20 16:47 35.458709 -119.607193 292 36019ft 422kts
12-Jun-20 16:48 35.520825 -119.729754 291 35994ft 420kts
12-Jun-20 16:50 35.593099 -119.872516 292 35990ft 422kts
12-Jun-20 16:50 35.643768 -119.975001 287 35990ft 416kts
12-Jun-20 16:51 35.693015 -120.102863 285 36018ft 410kts
12-Jun-20 16:53 35.748787 -120.252282 285 36069ft 411kts
12-Jun-20 16:53 35.788507 -120.359365 285 36072ft 410kts
12-Jun-20 16:54 35.835888 -120.487659 285 36072ft 408kts
12-Jun-20 16:55 35.882521 -120.614417 286 36065ft 403kts
12-Jun-20 16:57 35.935987 -120.760599 285 35010ft 400kts
12-Jun-20 16:57 35.974476 -120.866287 286 32813ft 402kts
12-Jun-20 16:58 36.038179 -120.980594 309 30033ft 418kts
12-Jun-20 16:59 36.126003 -121.071226 314 27635ft 409kts
12-Jun-20 17:00 36.214208 -121.156706 315 25273ft 390kts
12-Jun-20 17:01 36.294797 -121.233927 315 23116ft 354kts
12-Jun-20 17:02 36.371827 -121.307969 315 21009ft 346kts
12-Jun-20 17:03 36.447015 -121.380699 315 18936ft 339kts
12-Jun-20 17:04 36.527382 -121.442601 333 16720ft 349kts
12-Jun-20 17:05 36.617877 -121.481081 336 14713ft 344kts
12-Jun-20 17:06 36.707981 -121.519144 337 12711ft 338kts
12-Jun-20 17:07 36.796371 -121.556648 338 10751ft 326kts
12-Jun-20 17:08 36.873304 -121.589318 337 10030ft 272kts
12-Jun-20 17:09 36.943854 -121.619404 338 8717ft 271kts
12-Jun-20 17:10 37.014960 -121.649569 337 7352ft 269kts
12-Jun-20 17:11 37.066342 -121.698910 315 6418ft 236kts
12-Jun-20 17:12 37.137010 -121.702865 347 5436ft 280kts
12-Jun-20 17:13 37.190817 -121.741612 313 4075ft 181kts
12-Jun-20 17:14 37.222489 -121.776680 312 3317ft 162kts
12-Jun-20 17:15 37.254377 -121.811566 314 2701ft 164kts
12-Jun-20 17:16 37.285142 -121.845125 315 1926ft 153kts
12-Jun-20 17:17 37.311307 -121.873788 320 1265ft 134kts
12-Jun-20 17:18 37.335125 -121.899708 317 647ft 130kts
12-Jun-20 17:19 37.358749 -121.925599 317 59ft 120kts
12-Jun-20 17:20 37.367692 -121.933567 44 53ft 6kts
12-Jun-20 17:21 37.369154 -121.931089 76 53ft 10kts
12-Jun-20 17:22 37.369441 -121.930476 46 53ft 0kts
12-Jun-20 17:23 37.369441 -121.930477 46 53ft 0kts

Navigation Log

Ident Type
Flight plan parsing failed, navigation log unavailable